Time,TemperatureF,DewpointF,PressureIn,WindDirection,WindDirectionDegrees,WindSpeedMPH,WindSpeedGustMPH,Humidity,HourlyPrecipIn,Conditions,Clouds,dailyrainin,SolarRadiationWatts/m^2,SoftwareType,DateUTC
2013-05-14 00:00:00,64.4,38.9,29.77,North,-999,6.0,9.0,39,0.00,,,0.00,0.00,VWS V14.01,2013-05-14 06:00:00,
2013-05-14 00:05:00,65.8,38.8,29.77,North,-999,9.0,9.0,37,0.00,,,0.00,0.00,VWS V14.01,2013-05-14 06:05:00,
2013-05-14 00:10:00,65.1,39.5,29.77,North,-999,6.0,9.0,39,0.00,,,0.00,0.00,VWS V14.01,2013-05-14 06:10:00,
2013-05-14 00:15:00,64.1,39.3,29.76,North,-999,6.0,9.0,40,0.00,,,0.00,0.00,VWS V14.01,2013-05-14 06:15:00,
2013-05-14 00:20:00,63.9,38.5,29.76,North,-999,5.0,7.0,39,0.00,,,0.00,0.00,VWS V14.01,2013-05-14 06:20:00,
2013-05-14 00:25:00,65.1,38.2,29.76,North,-999,7.0,7.0,37,0.00,,,0.00,0.00,VWS V14.01,2013-05-14 06:25:00,
2013-05-14 00:30:00,66.7,38.2,29.76,North,-999,6.0,7.0,35,0.00,,,0.00,0.00,VWS V14.01,2013-05-14 06:30:00,
2013-05-14 00:35:00,65.8,38.8,29.76,North,-999,6.0,8.0,37,0.00,,,0.00,0.00,VWS V14.01,2013-05-14 06:35:00,
2013-05-14 00:40:00,64.5,39.0,29.76,North,-999,6.0,7.0,39,0.00,,,0.00,0.00,VWS V14.01,2013-05-14 06:40:00,
2013-05-14 00:45:00,64.5,39.0,29.76,North,-999,6.0,8.0,39,0.00,,,0.00,0.00,VWS V14.01,2013-05-14 06:45:00,
2013-05-14 00:50:00,63.0,38.3,29.76,North,-999,5.0,8.0,40,0.00,,,0.00,0.00,VWS V14.01,2013-05-14 06:50:00,
2013-05-14 00:55:00,63.7,38.3,29.76,North,-999,6.0,8.0,39,0.00,,,0.00,0.00,VWS V14.01,2013-05-14 06:55:00,
2013-05-14 01:00:00,64.2,40.7,29.76,North,-999,6.0,7.0,42,0.00,,,0.00,0.00,VWS V14.01,2013-05-14 07:00:00,
2013-05-14 01:05:00,63.6,38.2,29.76,North,-999,4.0,9.0,39,0.00,,,0.00,0.00,VWS V14.01,2013-05-14 07:05:00,
2013-05-14 01:10:00,65.6,38.7,29.76,North,-999,9.0,10.0,37,0.00,,,0.00,0.00,VWS V14.01,2013-05-14 07:10:00,
2013-05-14 01:15:00,66.1,38.4,29.76,North,-999,7.0,12.0,36,0.00,,,0.00,0.00,VWS V14.01,2013-05-14 07:15:00,
2013-05-14 01:20:00,65.9,37.5,29.76,North,-999,5.0,10.0,35,0.00,,,0.00,0.00,VWS V14.01,2013-05-14 07:20:00,
2013-05-14 01:25:00,65.2,38.3,29.76,North,-999,9.0,11.0,37,0.00,,,0.00,0.00,VWS V14.01,2013-05-14 07:25:00,
2013-05-14 01:30:00,65.8,38.1,29.76,North,-999,6.0,8.0,36,0.00,,,0.00,0.00,VWS V14.01,2013-05-14 07:30:00,
2013-05-14 01:35:00,66.0,38.3,29.76,North,-999,11.0,11.0,36,0.00,,,0.00,0.00,VWS V14.01,2013-05-14 07:35:00,
2013-05-14 01:40:00,66.4,39.4,29.76,North,-999,10.0,12.0,37,0.00,,,0.00,0.00,VWS V14.01,2013-05-14 07:40:00,
2013-05-14 01:45:00,66.3,37.8,29.76,North,-999,10.0,12.0,35,0.00,,,0.00,0.00,VWS V14.01,2013-05-14 07:45:00,
2013-05-14 01:50:00,64.6,37.8,29.76,North,-999,10.0,14.0,37,0.00,,,0.00,0.00,VWS V14.01,2013-05-14 07:50:00,
2013-05-14 01:55:00,67.2,36.4,29.76,North,-999,7.0,14.0,32,0.00,,,0.00,0.00,VWS V14.01,2013-05-14 07:55:00,
2013-05-14 02:00:00,70.8,36.1,29.76,North,-999,8.0,9.0,28,0.00,,,0.00,0.00,VWS V14.01,2013-05-14 08:00:00,
2013-05-14 02:05:00,70.4,37.5,29.76,North,-999,6.0,11.0,30,0.00,,,0.00,0.00,VWS V14.01,2013-05-14 08:05:00,
2013-05-14 02:10:00,68.9,37.8,29.76,North,-999,6.0,10.0,32,0.00,,,0.00,0.00,VWS V14.01,2013-05-14 08:10:00,
2013-05-14 02:15:00,67.6,38.3,29.76,North,-999,7.0,10.0,34,0.00,,,0.00,0.00,VWS V14.01,2013-05-14 08:15:00,
2013-05-14 02:20:00,67.5,36.6,29.76,North,-999,7.0,7.0,32,0.00,,,0.00,0.00,VWS V14.01,2013-05-14 08:20:00,
2013-05-14 02:25:00,67.0,37.7,29.76,North,-999,3.0,7.0,34,0.00,,,0.00,0.00,VWS V14.01,2013-05-14 08:25:00,
2013-05-14 02:30:00,65.6,36.5,29.76,North,-999,6.0,6.0,34,0.00,,,0.00,0.00,VWS V14.01,2013-05-14 08:30:00,
2013-05-14 02:35:00,64.3,36.8,29.76,North,-999,4.0,7.0,36,0.00,,,0.00,0.00,VWS V14.01,2013-05-14 08:35:00,
2013-05-14 02:40:00,63.9,36.5,29.76,North,-999,5.0,5.0,36,0.00,,,0.00,0.00,VWS V14.01,2013-05-14 08:40:00,
2013-05-14 02:45:00,63.3,36.6,29.76,North,-999,4.0,6.0,37,0.00,,,0.00,0.00,VWS V14.01,2013-05-14 08:45:00,
2013-05-14 02:50:00,63.5,36.8,29.76,North,-999,8.0,10.0,37,0.00,,,0.00,0.00,VWS V14.01,2013-05-14 08:50:00,
2013-05-14 02:55:00,63.4,38.0,29.76,North,-999,5.0,11.0,39,0.00,,,0.00,0.00,VWS V14.01,2013-05-14 08:55:00,
2013-05-14 03:00:00,65.2,37.6,29.76,North,-999,4.0,7.0,36,0.00,,,0.00,0.00,VWS V14.01,2013-05-14 09:00:00,
2013-05-14 03:05:00,63.4,38.7,29.76,North,-999,10.0,10.0,40,0.00,,,0.00,0.00,VWS V14.01,2013-05-14 09:05:00,
2013-05-14 03:10:00,62.7,38.0,29.76,North,-999,7.0,9.0,40,0.00,,,0.00,0.00,VWS V14.01,2013-05-14 09:10:00,
2013-05-14 03:15:00,63.4,38.7,29.76,North,-999,4.0,11.0,40,0.00,,,0.00,0.00,VWS V14.01,2013-05-14 09:15:00,
2013-05-14 03:20:00,63.3,37.3,29.77,North,-999,14.0,14.0,38,0.00,,,0.00,0.00,VWS V14.01,2013-05-14 09:20:00,
2013-05-14 03:25:00,64.5,34.8,29.76,North,-999,9.0,15.0,33,0.00,,,0.00,0.00,VWS V14.01,2013-05-14 09:25:00,
2013-05-14 03:30:00,65.9,34.4,29.77,North,-999,3.0,10.0,31,0.00,,,0.00,0.00,VWS V14.01,2013-05-14 09:30:00,
2013-05-14 03:35:00,69.0,35.5,29.78,North,-999,11.0,14.0,29,0.00,,,0.00,0.00,VWS V14.01,2013-05-14 09:35:00,
2013-05-14 03:40:00,69.1,36.4,29.78,North,-999,7.0,10.0,30,0.00,,,0.00,0.00,VWS V14.01,2013-05-14 09:40:00,
2013-05-14 03:45:00,68.0,37.8,29.78,North,-999,2.0,10.0,33,0.00,,,0.00,0.00,VWS V14.01,2013-05-14 09:45:00,
2013-05-14 03:50:00,66.5,40.1,29.78,North,-999,5.0,11.0,38,0.00,,,0.00,0.00,VWS V14.01,2013-05-14 09:50:00,
2013-05-14 03:55:00,64.6,41.0,29.78,North,-999,5.0,11.0,42,0.00,,,0.00,0.00,VWS V14.01,2013-05-14 09:55:00,
2013-05-14 04:00:00,63.4,40.5,29.78,North,-999,7.0,11.0,43,0.00,,,0.00,0.00,VWS V14.01,2013-05-14 10:00:00,
2013-05-14 04:05:00,63.0,41.3,29.79,North,-999,4.0,14.0,45,0.00,,,0.00,0.00,VWS V14.01,2013-05-14 10:05:00,
2013-05-14 04:10:00,62.7,41.1,29.78,North,-999,10.0,17.0,45,0.00,,,0.00,0.00,VWS V14.01,2013-05-14 10:10:00,
2013-05-14 04:15:00,62.6,41.0,29.79,North,-999,9.0,17.0,45,0.00,,,0.00,0.00,VWS V14.01,2013-05-14 10:15:00,
2013-05-14 04:20:00,62.7,41.6,29.79,North,-999,15.0,22.0,46,0.00,,,0.00,0.00,VWS V14.01,2013-05-14 10:20:00,
2013-05-14 04:25:00,62.7,41.6,29.79,North,-999,11.0,22.0,46,0.00,,,0.00,0.00,VWS V14.01,2013-05-14 10:25:00,
2013-05-14 04:30:00,61.9,41.5,29.79,North,-999,10.0,13.0,47,0.00,,,0.00,0.00,VWS V14.01,2013-05-14 10:30:00,
2013-05-14 04:35:00,61.7,41.3,29.80,North,-999,4.0,17.0,47,0.00,,,0.00,0.00,VWS V14.01,2013-05-14 10:35:00,
2013-05-14 04:40:00,61.3,42.0,29.80,North,-999,7.0,10.0,49,0.00,,,0.00,0.00,VWS V14.01,2013-05-14 10:40:00,
2013-05-14 04:45:00,60.9,41.6,29.79,North,-999,0.0,10.0,49,0.00,,,0.00,0.00,VWS V14.01,2013-05-14 10:45:00,
2013-05-14 04:50:00,60.8,42.6,29.80,North,-999,6.0,6.0,51,0.00,,,0.00,0.00,VWS V14.01,2013-05-14 10:50:00,
2013-05-14 04:55:00,60.5,42.3,29.80,North,-999,0.0,13.0,51,0.00,,,0.00,0.00,VWS V14.01,2013-05-14 10:55:00,
2013-05-14 05:00:00,60.8,42.6,29.80,North,-999,7.0,10.0,51,0.00,,,0.00,0.00,VWS V14.01,2013-05-14 11:00:00,
2013-05-14 05:04:00,61.2,42.4,29.81,North,-999,0.0,10.0,50,0.00,,,0.00,0.00,VWS V14.01,2013-05-14 11:04:00,
2013-05-14 05:09:00,61.5,42.7,29.81,North,-999,0.0,3.0,50,0.00,,,0.00,0.00,VWS V14.01,2013-05-14 11:09:00,
2013-05-14 05:14:00,61.5,42.7,29.81,North,-999,0.0,3.0,50,0.00,,,0.00,0.00,VWS V14.01,2013-05-14 11:14:00,
2013-05-14 05:19:00,61.2,42.4,29.81,North,-999,2.0,3.0,50,0.00,,,0.00,0.00,VWS V14.01,2013-05-14 11:19:00,
2013-05-14 05:24:00,61.4,42.6,29.81,North,-999,0.0,3.0,50,0.00,,,0.00,0.00,VWS V14.01,2013-05-14 11:24:00,
2013-05-14 05:29:00,61.2,42.4,29.81,North,-999,4.0,7.0,50,0.00,,,0.00,0.00,VWS V14.01,2013-05-14 11:29:00,
2013-05-14 05:34:00,61.1,42.3,29.81,North,-999,4.0,7.0,50,0.00,,,0.00,0.00,VWS V14.01,2013-05-14 11:34:00,
2013-05-14 05:39:00,60.7,42.0,29.81,North,-999,7.0,9.0,50,0.00,,,0.00,0.00,VWS V14.01,2013-05-14 11:39:00,
2013-05-14 05:44:00,59.5,42.4,29.81,North,-999,14.0,15.0,53,0.00,,,0.00,0.00,VWS V14.01,2013-05-14 11:44:00,
2013-05-14 05:49:00,58.6,42.5,29.82,North,-999,6.0,10.0,55,0.00,,,0.00,0.00,VWS V14.01,2013-05-14 11:49:00,
2013-05-14 05:54:00,58.7,42.6,29.82,North,-999,4.0,10.0,55,0.00,,,0.00,5.00,VWS V14.01,2013-05-14 11:54:00,
2013-05-14 05:59:00,58.6,43.0,29.82,North,-999,7.0,8.0,56,0.00,,,0.00,9.00,VWS V14.01,2013-05-14 11:59:00,
2013-05-14 06:04:00,58.2,42.6,29.83,North,-999,8.0,11.0,56,0.00,,,0.00,11.00,VWS V14.01,2013-05-14 12:04:00,
2013-05-14 06:09:00,57.9,42.8,29.83,North,-999,7.0,7.0,57,0.00,,,0.00,14.00,VWS V14.01,2013-05-14 12:09:00,
2013-05-14 06:14:00,58.6,43.0,29.83,North,-999,5.0,11.0,56,0.00,,,0.00,18.00,VWS V14.01,2013-05-14 12:14:00,
2013-05-14 06:19:00,58.9,42.8,29.83,North,-999,0.0,2.0,55,0.00,,,0.00,21.00,VWS V14.01,2013-05-14 12:19:00,
2013-05-14 06:24:00,59.0,43.3,29.84,North,-999,0.0,2.0,56,0.00,,,0.00,26.00,VWS V14.01,2013-05-14 12:24:00,
2013-05-14 06:29:00,58.9,43.2,29.84,North,-999,0.0,0.0,56,0.00,,,0.00,32.00,VWS V14.01,2013-05-14 12:29:00,
2013-05-14 06:34:00,59.0,43.3,29.84,North,-999,0.0,0.0,56,0.00,,,0.00,37.00,VWS V14.01,2013-05-14 12:34:00,
2013-05-14 06:39:00,59.1,43.4,29.84,North,-999,0.0,0.0,56,0.00,,,0.00,42.00,VWS V14.01,2013-05-14 12:39:00,
2013-05-14 06:44:00,59.2,43.1,29.84,North,-999,4.0,5.0,55,0.00,,,0.00,49.00,VWS V14.01,2013-05-14 12:44:00,
2013-05-14 06:49:00,59.5,43.3,29.84,North,-999,9.0,10.0,55,0.00,,,0.00,53.00,VWS V14.01,2013-05-14 12:49:00,
2013-05-14 06:54:00,59.6,43.9,29.84,North,-999,5.0,10.0,56,0.00,,,0.00,56.00,VWS V14.01,2013-05-14 12:54:00,
2013-05-14 06:59:00,59.7,44.0,29.84,North,-999,3.0,3.0,56,0.00,,,0.00,63.00,VWS V14.01,2013-05-14 12:59:00,
2013-05-14 07:04:00,59.8,44.1,29.85,North,-999,5.0,7.0,56,0.00,,,0.00,74.00,VWS V14.01,2013-05-14 13:04:00,
2013-05-14 07:09:00,59.8,44.5,29.85,North,-999,3.0,6.0,57,0.00,,,0.00,86.00,VWS V14.01,2013-05-14 13:09:00,
2013-05-14 07:14:00,60.0,44.3,29.85,North,-999,5.0,8.0,56,0.00,,,0.00,102.00,VWS V14.01,2013-05-14 13:14:00,
2013-05-14 07:19:00,60.4,44.7,29.85,North,-999,6.0,7.0,56,0.00,,,0.00,125.00,VWS V14.01,2013-05-14 13:19:00,
2013-05-14 07:24:00,61.0,44.2,29.85,North,-999,6.0,8.0,54,0.00,,,0.00,156.00,VWS V14.01,2013-05-14 13:24:00,
2013-05-14 07:29:00,61.6,44.3,29.86,North,-999,6.0,10.0,53,0.00,,,0.00,188.00,VWS V14.01,2013-05-14 13:29:00,
2013-05-14 07:34:00,62.1,44.8,29.85,North,-999,10.0,10.0,53,0.00,,,0.00,221.00,VWS V14.01,2013-05-14 13:34:00,
2013-05-14 07:39:00,62.5,44.7,29.85,North,-999,7.0,10.0,52,0.00,,,0.00,239.00,VWS V14.01,2013-05-14 13:39:00,
2013-05-14 07:44:00,62.6,44.8,29.86,North,-999,10.0,12.0,52,0.00,,,0.00,241.00,VWS V14.01,2013-05-14 13:44:00,
2013-05-14 07:49:00,62.8,44.4,29.85,North,-999,7.0,10.0,51,0.00,,,0.00,276.00,VWS V14.01,2013-05-14 13:49:00,
2013-05-14 07:54:00,63.0,44.6,29.85,North,-999,11.0,12.0,51,0.00,,,0.00,304.00,VWS V14.01,2013-05-14 13:54:00,
2013-05-14 07:59:00,63.2,44.8,29.85,North,-999,8.0,10.0,51,0.00,,,0.00,316.00,VWS V14.01,2013-05-14 13:59:00,
2013-05-14 08:04:00,63.6,44.1,29.85,North,-999,11.0,14.0,49,0.00,,,0.00,316.00,VWS V14.01,2013-05-14 14:04:00,
2013-05-14 08:09:00,63.8,44.8,29.85,North,-999,9.0,12.0,50,0.00,,,0.00,353.00,VWS V14.01,2013-05-14 14:09:00,
2013-05-14 08:14:00,63.9,44.4,29.85,North,-999,12.0,14.0,49,0.00,,,0.00,360.00,VWS V14.01,2013-05-14 14:14:00,
2013-05-14 08:19:00,64.1,44.6,29.85,North,-999,11.0,12.0,49,0.00,,,0.00,353.00,VWS V14.01,2013-05-14 14:19:00,
2013-05-14 08:24:00,64.2,44.7,29.85,North,-999,10.0,15.0,49,0.00,,,0.00,367.00,VWS V14.01,2013-05-14 14:24:00,
2013-05-14 08:29:00,64.1,44.6,29.85,North,-999,9.0,11.0,49,0.00,,,0.00,360.00,VWS V14.01,2013-05-14 14:29:00,
2013-05-14 08:34:00,64.3,44.2,29.85,North,-999,10.0,12.0,48,0.00,,,0.00,332.00,VWS V14.01,2013-05-14 14:34:00,
2013-05-14 08:39:00,64.3,44.8,29.85,North,-999,5.0,14.0,49,0.00,,,0.00,355.00,VWS V14.01,2013-05-14 14:39:00,
2013-05-14 08:44:00,64.2,44.7,29.85,North,-999,6.0,14.0,49,0.00,,,0.00,381.00,VWS V14.01,2013-05-14 14:44:00,
2013-05-14 08:49:00,64.2,44.7,29.85,North,-999,14.0,14.0,49,0.00,,,0.00,387.00,VWS V14.01,2013-05-14 14:49:00,
2013-05-14 08:54:00,64.3,44.2,29.85,North,-999,11.0,15.0,48,0.00,,,0.00,387.00,VWS V14.01,2013-05-14 14:54:00,
2013-05-14 08:59:00,64.9,45.3,29.85,North,-999,11.0,11.0,49,0.00,,,0.00,394.00,VWS V14.01,2013-05-14 14:59:00,
2013-05-14 09:04:00,65.3,44.6,29.85,North,-999,14.0,15.0,47,0.00,,,0.00,475.00,VWS V14.01,2013-05-14 15:04:00,
2013-05-14 09:09:00,65.4,45.2,29.86,North,-999,7.0,11.0,48,0.00,,,0.00,487.00,VWS V14.01,2013-05-14 15:09:00,
2013-05-14 09:14:00,65.7,44.9,29.85,North,-999,14.0,16.0,47,0.00,,,0.00,548.00,VWS V14.01,2013-05-14 15:14:00,
2013-05-14 09:19:00,66.0,45.2,29.85,North,-999,9.0,13.0,47,0.00,,,0.00,499.00,VWS V14.01,2013-05-14 15:19:00,
2013-05-14 09:24:00,66.6,45.2,29.85,North,-999,16.0,16.0,46,0.00,,,0.00,526.00,VWS V14.01,2013-05-14 15:24:00,
2013-05-14 09:29:00,67.2,45.2,29.85,North,-999,11.0,13.0,45,0.00,,,0.00,522.00,VWS V14.01,2013-05-14 15:29:00,
2013-05-14 09:34:00,67.5,45.4,29.85,North,-999,12.0,13.0,45,0.00,,,0.00,513.00,VWS V14.01,2013-05-14 15:34:00,
2013-05-14 09:39:00,68.3,45.0,29.85,North,-999,10.0,11.0,43,0.00,,,0.00,515.00,VWS V14.01,2013-05-14 15:39:00,
2013-05-14 09:44:00,68.6,43.3,29.85,North,-999,13.0,14.0,40,0.00,,,0.00,599.00,VWS V14.01,2013-05-14 15:44:00,
2013-05-14 09:49:00,68.2,43.0,29.85,North,-999,14.0,14.0,40,0.00,,,0.00,610.00,VWS V14.01,2013-05-14 15:49:00,
2013-05-14 09:54:00,68.3,43.1,29.85,North,-999,12.0,14.0,40,0.00,,,0.00,622.00,VWS V14.01,2013-05-14 15:54:00,
2013-05-14 09:59:00,69.0,43.0,29.84,North,-999,6.0,6.0,39,0.00,,,0.00,638.00,VWS V14.01,2013-05-14 15:59:00,
2013-05-14 10:04:00,69.5,42.8,29.84,North,-999,9.0,13.0,38,0.00,,,0.00,664.00,VWS V14.01,2013-05-14 16:04:00,
2013-05-14 10:09:00,70.1,44.0,29.84,North,-999,6.0,10.0,39,0.00,,,0.00,671.00,VWS V14.01,2013-05-14 16:09:00,
2013-05-14 10:14:00,70.2,44.8,29.84,North,-999,11.0,13.0,40,0.00,,,0.00,686.00,VWS V14.01,2013-05-14 16:14:00,
2013-05-14 10:19:00,69.9,43.2,29.84,North,-999,2.0,11.0,38,0.00,,,0.00,686.00,VWS V14.01,2013-05-14 16:19:00,
2013-05-14 10:24:00,70.4,42.9,29.84,North,-999,9.0,13.0,37,0.00,,,0.00,729.00,VWS V14.01,2013-05-14 16:24:00,
2013-05-14 10:29:00,70.4,43.6,29.84,North,-999,5.0,7.0,38,0.00,,,0.00,694.00,VWS V14.01,2013-05-14 16:29:00,
2013-05-14 10:34:00,70.8,44.0,29.84,North,-999,9.0,9.0,38,0.00,,,0.00,717.00,VWS V14.01,2013-05-14 16:34:00,
2013-05-14 10:39:00,71.1,42.1,29.84,North,-999,3.0,11.0,35,0.00,,,0.00,768.00,VWS V14.01,2013-05-14 16:39:00,
2013-05-14 10:44:00,70.9,41.9,29.84,North,-999,4.0,11.0,35,0.00,,,0.00,745.00,VWS V14.01,2013-05-14 16:44:00,
2013-05-14 10:49:00,71.2,42.9,29.84,North,-999,1.0,4.0,36,0.00,,,0.00,756.00,VWS V14.01,2013-05-14 16:49:00,
2013-05-14 10:54:00,71.8,42.0,29.84,North,-999,3.0,12.0,34,0.00,,,0.00,759.00,VWS V14.01,2013-05-14 16:54:00,
2013-05-14 10:59:00,71.7,41.9,29.84,North,-999,7.0,10.0,34,0.00,,,0.00,759.00,VWS V14.01,2013-05-14 16:59:00,
2013-05-14 11:04:00,71.9,41.3,29.84,North,-999,11.0,12.0,33,0.00,,,0.00,773.00,VWS V14.01,2013-05-14 17:04:00,
2013-05-14 11:09:00,72.1,42.2,29.84,North,-999,9.0,10.0,34,0.00,,,0.00,759.00,VWS V14.01,2013-05-14 17:09:00,
2013-05-14 11:14:00,72.6,41.9,29.84,North,-999,12.0,12.0,33,0.00,,,0.00,809.00,VWS V14.01,2013-05-14 17:14:00,
2013-05-14 11:18:00,72.7,42.0,29.84,North,-999,6.0,6.0,33,0.00,,,0.00,809.00,VWS V14.01,2013-05-14 17:18:00,
2013-05-14 11:23:00,73.3,41.7,29.84,North,-999,5.0,13.0,32,0.00,,,0.00,819.00,VWS V14.01,2013-05-14 17:23:00,
2013-05-14 11:28:00,73.6,42.0,29.84,North,-999,10.0,14.0,32,0.00,,,0.00,840.00,VWS V14.01,2013-05-14 17:28:00,
2013-05-14 11:33:00,73.2,41.6,29.83,North,-999,6.0,14.0,32,0.00,,,0.00,867.00,VWS V14.01,2013-05-14 17:33:00,
2013-05-14 11:38:00,73.5,41.9,29.83,North,-999,7.0,10.0,32,0.00,,,0.00,891.00,VWS V14.01,2013-05-14 17:38:00,
2013-05-14 11:43:00,74.1,41.6,29.83,North,-999,5.0,11.0,31,0.00,,,0.00,895.00,VWS V14.01,2013-05-14 17:43:00,
2013-05-14 11:48:00,74.1,41.6,29.83,North,-999,4.0,7.0,31,0.00,,,0.00,898.00,VWS V14.01,2013-05-14 17:48:00,
2013-05-14 11:53:00,73.7,41.2,29.83,North,-999,9.0,13.0,31,0.00,,,0.00,896.00,VWS V14.01,2013-05-14 17:53:00,
2013-05-14 11:58:00,73.3,40.9,29.83,North,-999,6.0,7.0,31,0.00,,,0.00,916.00,VWS V14.01,2013-05-14 17:58:00,
2013-05-14 12:03:00,74.2,40.8,29.83,North,-999,10.0,15.0,30,0.00,,,0.00,912.00,VWS V14.01,2013-05-14 18:03:00,
2013-05-14 12:08:00,74.6,42.8,29.83,North,-999,12.0,14.0,32,0.00,,,0.00,875.00,VWS V14.01,2013-05-14 18:08:00,
2013-05-14 12:13:00,74.3,41.7,29.83,North,-999,4.0,15.0,31,0.00,,,0.00,823.00,VWS V14.01,2013-05-14 18:13:00,
2013-05-14 12:18:00,74.0,41.5,29.83,North,-999,2.0,10.0,31,0.00,,,0.00,926.00,VWS V14.01,2013-05-14 18:18:00,
2013-05-14 12:23:00,73.9,41.4,29.83,North,-999,10.0,16.0,31,0.00,,,0.00,954.00,VWS V14.01,2013-05-14 18:23:00,
2013-05-14 12:28:00,73.9,41.4,29.83,North,-999,9.0,9.0,31,0.00,,,0.00,958.00,VWS V14.01,2013-05-14 18:28:00,
2013-05-14 12:33:00,74.5,41.1,29.83,North,-999,1.0,9.0,30,0.00,,,0.00,951.00,VWS V14.01,2013-05-14 18:33:00,
2013-05-14 12:38:00,74.8,41.3,29.82,North,-999,9.0,15.0,30,0.00,,,0.00,953.00,VWS V14.01,2013-05-14 18:38:00,
2013-05-14 12:43:00,74.7,41.2,29.82,North,-999,6.0,15.0,30,0.00,,,0.00,918.00,VWS V14.01,2013-05-14 18:43:00,
2013-05-14 12:48:00,74.5,41.1,29.81,North,-999,3.0,7.0,30,0.00,,,0.00,928.00,VWS V14.01,2013-05-14 18:48:00,
2013-05-14 12:53:00,74.8,41.3,29.81,North,-999,9.0,9.0,30,0.00,,,0.00,970.00,VWS V14.01,2013-05-14 18:53:00,
2013-05-14 12:58:00,76.0,43.2,29.81,North,-999,4.0,12.0,31,0.00,,,0.00,954.00,VWS V14.01,2013-05-14 18:58:00,
2013-05-14 13:03:00,76.5,42.8,29.81,North,-999,9.0,14.0,30,0.00,,,0.00,940.00,VWS V14.01,2013-05-14 19:03:00,
2013-05-14 13:08:00,76.1,41.6,29.80,North,-999,5.0,5.0,29,0.00,,,0.00,970.00,VWS V14.01,2013-05-14 19:08:00,
2013-05-14 13:13:00,76.3,41.7,29.80,North,-999,11.0,14.0,29,0.00,,,0.00,981.00,VWS V14.01,2013-05-14 19:13:00,
2013-05-14 13:18:00,75.7,42.1,29.80,North,-999,11.0,13.0,30,0.00,,,0.00,954.00,VWS V14.01,2013-05-14 19:18:00,
2013-05-14 13:23:00,76.1,41.6,29.81,North,-999,7.0,15.0,29,0.00,,,0.00,947.00,VWS V14.01,2013-05-14 19:23:00,
2013-05-14 13:28:00,76.1,40.7,29.80,North,-999,0.0,0.0,28,0.00,,,0.00,900.00,VWS V14.01,2013-05-14 19:28:00,
2013-05-14 13:33:00,76.2,40.8,29.80,North,-999,6.0,12.0,28,0.00,,,0.00,902.00,VWS V14.01,2013-05-14 19:33:00,
2013-05-14 13:38:00,76.1,41.6,29.80,North,-999,6.0,11.0,29,0.00,,,0.00,933.00,VWS V14.01,2013-05-14 19:38:00,
2013-05-14 13:43:00,76.6,41.1,29.80,North,-999,4.0,12.0,28,0.00,,,0.00,907.00,VWS V14.01,2013-05-14 19:43:00,
2013-05-14 13:48:00,76.4,40.9,29.79,North,-999,1.0,3.0,28,0.00,,,0.00,930.00,VWS V14.01,2013-05-14 19:48:00,
2013-05-14 13:53:00,76.7,41.2,29.79,North,-999,4.0,8.0,28,0.00,,,0.00,907.00,VWS V14.01,2013-05-14 19:53:00,
2013-05-14 13:58:00,76.8,43.0,29.79,North,-999,4.0,5.0,30,0.00,,,0.00,939.00,VWS V14.01,2013-05-14 19:58:00,
2013-05-14 14:03:00,77.0,41.4,29.79,North,-999,9.0,13.0,28,0.00,,,0.00,940.00,VWS V14.01,2013-05-14 20:03:00,
2013-05-14 14:08:00,77.0,41.4,29.79,North,-999,8.0,11.0,28,0.00,,,0.00,930.00,VWS V14.01,2013-05-14 20:08:00,
2013-05-14 14:13:00,76.9,41.3,29.79,North,-999,10.0,11.0,28,0.00,,,0.00,909.00,VWS V14.01,2013-05-14 20:13:00,
2013-05-14 14:18:00,76.9,40.4,29.79,North,-999,1.0,2.0,27,0.00,,,0.00,893.00,VWS V14.01,2013-05-14 20:18:00,
2013-05-14 14:23:00,77.3,40.8,29.78,North,-999,4.0,11.0,27,0.00,,,0.00,891.00,VWS V14.01,2013-05-14 20:23:00,
2013-05-14 14:28:00,77.9,40.3,29.78,North,-999,3.0,5.0,26,0.00,,,0.00,904.00,VWS V14.01,2013-05-14 20:28:00,
2013-05-14 14:33:00,78.1,40.5,29.78,North,-999,5.0,11.0,26,0.00,,,0.00,909.00,VWS V14.01,2013-05-14 20:33:00,
2013-05-14 14:38:00,78.7,41.0,29.78,North,-999,2.0,4.0,26,0.00,,,0.00,884.00,VWS V14.01,2013-05-14 20:38:00,
2013-05-14 14:43:00,79.1,41.3,29.77,North,-999,7.0,11.0,26,0.00,,,0.00,893.00,VWS V14.01,2013-05-14 20:43:00,
2013-05-14 14:48:00,78.6,40.9,29.77,North,-999,9.0,10.0,26,0.00,,,0.00,884.00,VWS V14.01,2013-05-14 20:48:00,
2013-05-14 14:53:00,78.8,40.0,29.77,North,-999,3.0,13.0,25,0.00,,,0.00,860.00,VWS V14.01,2013-05-14 20:53:00,
2013-05-14 14:58:00,78.7,38.9,29.77,North,-999,0.0,0.0,24,0.00,,,0.00,877.00,VWS V14.01,2013-05-14 20:58:00,
2013-05-14 15:03:00,79.1,40.3,29.77,North,-999,10.0,13.0,25,0.00,,,0.00,870.00,VWS V14.01,2013-05-14 21:03:00,
2013-05-14 15:08:00,79.3,40.5,29.77,North,-999,7.0,7.0,25,0.00,,,0.00,860.00,VWS V14.01,2013-05-14 21:08:00,
2013-05-14 15:13:00,79.0,41.2,29.77,North,-999,5.0,7.0,26,0.00,,,0.00,846.00,VWS V14.01,2013-05-14 21:13:00,
2013-05-14 15:18:00,78.8,40.0,29.76,North,-999,2.0,2.0,25,0.00,,,0.00,817.00,VWS V14.01,2013-05-14 21:18:00,
2013-05-14 15:23:00,78.8,40.0,29.76,North,-999,2.0,12.0,25,0.00,,,0.00,817.00,VWS V14.01,2013-05-14 21:23:00,
2013-05-14 15:28:00,78.7,40.0,29.76,North,-999,2.0,2.0,25,0.00,,,0.00,823.00,VWS V14.01,2013-05-14 21:28:00,
2013-05-14 15:33:00,78.9,42.1,29.76,North,-999,1.0,2.0,27,0.00,,,0.00,817.00,VWS V14.01,2013-05-14 21:33:00,
2013-05-14 15:38:00,80.0,42.1,29.75,North,-999,2.0,2.0,26,0.00,,,0.00,810.00,VWS V14.01,2013-05-14 21:38:00,
2013-05-14 15:43:00,80.9,38.5,29.76,North,-999,6.0,15.0,22,0.00,,,0.00,798.00,VWS V14.01,2013-05-14 21:43:00,
2013-05-14 15:48:00,80.5,38.2,29.75,North,-999,1.0,1.0,22,0.00,,,0.00,786.00,VWS V14.01,2013-05-14 21:48:00,
2013-05-14 15:53:00,80.5,39.3,29.75,North,-999,0.0,6.0,23,0.00,,,0.00,775.00,VWS V14.01,2013-05-14 21:53:00,
2013-05-14 15:58:00,80.8,40.7,29.75,North,-999,3.0,5.0,24,0.00,,,0.00,763.00,VWS V14.01,2013-05-14 21:58:00,
2013-05-14 16:03:00,80.7,39.5,29.75,North,-999,11.0,13.0,23,0.00,,,0.00,754.00,VWS V14.01,2013-05-14 22:03:00,
2013-05-14 16:08:00,80.3,38.0,29.75,North,-999,5.0,6.0,22,0.00,,,0.00,724.00,VWS V14.01,2013-05-14 22:08:00,
2013-05-14 16:13:00,80.7,40.6,29.75,North,-999,4.0,8.0,24,0.00,,,0.00,729.00,VWS V14.01,2013-05-14 22:13:00,
2013-05-14 16:18:00,80.5,39.3,29.75,North,-999,9.0,11.0,23,0.00,,,0.00,717.00,VWS V14.01,2013-05-14 22:18:00,
2013-05-14 16:23:00,80.5,41.5,29.75,North,-999,5.0,12.0,25,0.00,,,0.00,708.00,VWS V14.01,2013-05-14 22:23:00,
2013-05-14 16:28:00,80.2,39.1,29.74,North,-999,4.0,5.0,23,0.00,,,0.00,671.00,VWS V14.01,2013-05-14 22:28:00,
2013-05-14 16:33:00,80.0,40.0,29.74,North,-999,5.0,9.0,24,0.00,,,0.00,680.00,VWS V14.01,2013-05-14 22:33:00,
2013-05-14 16:38:00,80.1,39.0,29.74,North,-999,4.0,5.0,23,0.00,,,0.00,670.00,VWS V14.01,2013-05-14 22:38:00,
2013-05-14 16:43:00,80.2,38.0,29.75,North,-999,7.0,15.0,22,0.00,,,0.00,650.00,VWS V14.01,2013-05-14 22:43:00,
2013-05-14 16:48:00,80.5,38.2,29.74,North,-999,11.0,11.0,22,0.00,,,0.00,612.00,VWS V14.01,2013-05-14 22:48:00,
2013-05-14 16:53:00,80.3,36.8,29.74,North,-999,7.0,16.0,21,0.00,,,0.00,643.00,VWS V14.01,2013-05-14 22:53:00,
2013-05-14 16:58:00,80.1,36.7,29.74,North,-999,2.0,16.0,21,0.00,,,0.00,638.00,VWS V14.01,2013-05-14 22:58:00,
2013-05-14 17:03:00,80.6,37.1,29.74,North,-999,7.0,11.0,21,0.00,,,0.00,610.00,VWS V14.01,2013-05-14 23:03:00,
2013-05-14 17:08:00,80.7,35.9,29.74,North,-999,7.0,11.0,20,0.00,,,0.00,589.00,VWS V14.01,2013-05-14 23:08:00,
2013-05-14 17:13:00,80.5,35.8,29.74,North,-999,11.0,13.0,20,0.00,,,0.00,598.00,VWS V14.01,2013-05-14 23:13:00,
2013-05-14 17:18:00,80.9,33.5,29.74,North,-999,6.0,16.0,18,0.00,,,0.00,554.00,VWS V14.01,2013-05-14 23:18:00,
2013-05-14 17:23:00,80.7,35.9,29.74,North,-999,13.0,16.0,20,0.00,,,0.00,566.00,VWS V14.01,2013-05-14 23:23:00,
2013-05-14 17:27:00,80.5,34.5,29.74,North,-999,5.0,24.0,19,0.00,,,0.00,534.00,VWS V14.01,2013-05-14 23:27:00,
2013-05-14 17:32:00,80.7,33.3,29.74,North,-999,7.0,14.0,18,0.00,,,0.00,464.00,VWS V14.01,2013-05-14 23:32:00,
2013-05-14 17:37:00,80.7,34.7,29.73,North,-999,11.0,14.0,19,0.00,,,0.00,496.00,VWS V14.01,2013-05-14 23:37:00,
2013-05-14 17:42:00,80.5,34.5,29.73,North,-999,13.0,22.0,19,0.00,,,0.00,497.00,VWS V14.01,2013-05-14 23:42:00,
2013-05-14 17:47:00,80.4,34.4,29.73,North,-999,8.0,22.0,19,0.00,,,0.00,476.00,VWS V14.01,2013-05-14 23:47:00,
2013-05-14 17:52:00,80.2,32.9,29.73,North,-999,6.0,15.0,18,0.00,,,0.00,457.00,VWS V14.01,2013-05-14 23:52:00,
2013-05-14 17:57:00,80.3,34.3,29.73,North,-999,6.0,15.0,19,0.00,,,0.00,438.00,VWS V14.01,2013-05-14 23:57:00,
2013-05-14 18:02:00,80.7,35.9,29.73,North,-999,10.0,10.0,20,0.00,,,0.00,420.00,VWS V14.01,2013-05-15 00:02:00,
2013-05-14 18:07:00,80.5,35.8,29.73,North,-999,16.0,19.0,20,0.00,,,0.00,397.00,VWS V14.01,2013-05-15 00:07:00,
2013-05-14 18:12:00,80.3,34.3,29.73,North,-999,14.0,20.0,19,0.00,,,0.00,383.00,VWS V14.01,2013-05-15 00:12:00,
2013-05-14 18:17:00,79.9,37.7,29.74,North,-999,18.0,20.0,22,0.00,,,0.00,357.00,VWS V14.01,2013-05-15 00:17:00,
2013-05-14 18:22:00,79.1,39.2,29.74,North,-999,18.0,20.0,24,0.00,,,0.00,343.00,VWS V14.01,2013-05-15 00:22:00,
2013-05-14 18:27:00,78.6,38.8,29.74,North,-999,12.0,20.0,24,0.00,,,0.00,306.00,VWS V14.01,2013-05-15 00:27:00,
2013-05-14 18:32:00,78.2,37.4,29.74,North,-999,14.0,20.0,23,0.00,,,0.00,306.00,VWS V14.01,2013-05-15 00:32:00,
2013-05-14 18:37:00,77.9,38.2,29.74,North,-999,13.0,20.0,24,0.00,,,0.00,295.00,VWS V14.01,2013-05-15 00:37:00,
2013-05-14 18:42:00,77.8,39.2,29.73,North,-999,18.0,18.0,25,0.00,,,0.00,234.00,VWS V14.01,2013-05-15 00:42:00,
2013-05-14 18:47:00,77.1,38.6,29.74,North,-999,10.0,22.0,25,0.00,,,0.00,230.00,VWS V14.01,2013-05-15 00:47:00,
2013-05-14 18:52:00,77.0,38.5,29.74,North,-999,16.0,18.0,25,0.00,,,0.00,211.00,VWS V14.01,2013-05-15 00:52:00,
2013-05-14 18:57:00,76.6,39.2,29.74,North,-999,17.0,23.0,26,0.00,,,0.00,171.00,VWS V14.01,2013-05-15 00:57:00,
2013-05-14 19:02:00,76.1,38.8,29.74,North,-999,19.0,23.0,26,0.00,,,0.00,134.00,VWS V14.01,2013-05-15 01:02:00,
2013-05-14 19:07:00,76.0,39.6,29.74,North,-999,14.0,23.0,27,0.00,,,0.00,160.00,VWS V14.01,2013-05-15 01:07:00,
2013-05-14 19:12:00,75.6,39.3,29.74,North,-999,23.0,28.0,27,0.00,,,0.00,158.00,VWS V14.01,2013-05-15 01:12:00,
2013-05-14 19:17:00,75.2,39.9,29.75,North,-999,16.0,28.0,28,0.00,,,0.00,141.00,VWS V14.01,2013-05-15 01:17:00,
2013-05-14 19:22:00,74.8,39.5,29.75,North,-999,17.0,22.0,28,0.00,,,0.00,123.00,VWS V14.01,2013-05-15 01:22:00,
2013-05-14 19:27:00,74.4,39.2,29.75,North,-999,19.0,23.0,28,0.00,,,0.00,86.00,VWS V14.01,2013-05-15 01:27:00,
2013-05-14 19:32:00,73.9,38.8,29.75,North,-999,19.0,24.0,28,0.00,,,0.00,100.00,VWS V14.01,2013-05-15 01:32:00,
2013-05-14 19:37:00,73.6,38.5,29.75,North,-999,15.0,26.0,28,0.00,,,0.00,91.00,VWS V14.01,2013-05-15 01:37:00,
2013-05-14 19:42:00,73.3,38.3,29.76,North,-999,14.0,31.0,28,0.00,,,0.00,67.00,VWS V14.01,2013-05-15 01:42:00,
2013-05-14 19:47:00,72.8,38.7,29.76,North,-999,22.0,31.0,29,0.00,,,0.00,56.00,VWS V14.01,2013-05-15 01:47:00,
2013-05-14 19:52:00,71.7,40.3,29.76,North,-999,24.0,28.0,32,0.00,,,0.00,39.00,VWS V14.01,2013-05-15 01:52:00,
2013-05-14 19:57:00,70.7,40.2,29.76,North,-999,26.0,29.0,33,0.00,,,0.00,25.00,VWS V14.01,2013-05-15 01:57:00,
2013-05-14 20:02:00,70.2,40.5,29.77,North,-999,17.0,30.0,34,0.00,,,0.00,19.00,VWS V14.01,2013-05-15 02:02:00,
2013-05-14 20:07:00,69.8,40.9,29.77,North,-999,19.0,30.0,35,0.00,,,0.00,16.00,VWS V14.01,2013-05-15 02:07:00,
2013-05-14 20:12:00,69.4,40.6,29.77,North,-999,20.0,34.0,35,0.00,,,0.00,14.00,VWS V14.01,2013-05-15 02:12:00,
2013-05-14 20:17:00,69.3,40.5,29.77,North,-999,16.0,34.0,35,0.00,,,0.00,12.00,VWS V14.01,2013-05-15 02:17:00,
2013-05-14 20:22:00,69.1,40.3,29.77,North,-999,31.0,33.0,35,0.00,,,0.00,11.00,VWS V14.01,2013-05-15 02:22:00,
2013-05-14 20:27:00,69.1,40.3,29.78,North,-999,26.0,33.0,35,0.00,,,0.00,7.00,VWS V14.01,2013-05-15 02:27:00,
2013-05-14 20:32:00,69.0,40.2,29.78,North,-999,18.0,29.0,35,0.00,,,0.00,5.00,VWS V14.01,2013-05-15 02:32:00,
2013-05-14 20:37:00,68.8,40.8,29.78,North,-999,24.0,29.0,36,0.00,,,0.00,0.00,VWS V14.01,2013-05-15 02:37:00,
2013-05-14 20:42:00,68.7,41.4,29.79,North,-999,27.0,31.0,37,0.00,,,0.00,0.00,VWS V14.01,2013-05-15 02:42:00,
2013-05-14 20:47:00,68.2,41.7,29.79,North,-999,15.0,31.0,38,0.00,,,0.00,0.00,VWS V14.01,2013-05-15 02:47:00,
2013-05-14 20:52:00,67.7,41.9,29.80,North,-999,21.0,23.0,39,0.00,,,0.00,0.00,VWS V14.01,2013-05-15 02:52:00,
2013-05-14 20:57:00,67.2,42.1,29.79,North,-999,15.0,26.0,40,0.00,,,0.00,0.00,VWS V14.01,2013-05-15 02:57:00,
2013-05-14 21:02:00,66.7,42.3,29.80,North,-999,21.0,29.0,41,0.00,,,0.00,0.00,VWS V14.01,2013-05-15 03:02:00,
2013-05-14 21:07:00,66.3,41.9,29.80,North,-999,14.0,29.0,41,0.00,,,0.00,0.00,VWS V14.01,2013-05-15 03:07:00,
2013-05-14 21:12:00,65.9,42.2,29.81,North,-999,12.0,22.0,42,0.00,,,0.00,0.00,VWS V14.01,2013-05-15 03:12:00,
2013-05-14 21:17:00,65.8,42.1,29.81,North,-999,10.0,22.0,42,0.00,,,0.00,0.00,VWS V14.01,2013-05-15 03:17:00,
2013-05-14 21:22:00,65.6,42.5,29.81,North,-999,11.0,19.0,43,0.00,,,0.00,0.00,VWS V14.01,2013-05-15 03:22:00,
2013-05-14 21:27:00,65.5,42.4,29.81,North,-999,10.0,19.0,43,0.00,,,0.00,0.00,VWS V14.01,2013-05-15 03:27:00,
2013-05-14 21:32:00,65.4,42.3,29.81,North,-999,3.0,14.0,43,0.00,,,0.00,0.00,VWS V14.01,2013-05-15 03:32:00,
2013-05-14 21:37:00,65.2,42.2,29.82,North,-999,1.0,14.0,43,0.00,,,0.00,0.00,VWS V14.01,2013-05-15 03:37:00,
2013-05-14 21:42:00,65.2,42.2,29.81,North,-999,9.0,14.0,43,0.00,,,0.00,0.00,VWS V14.01,2013-05-15 03:42:00,
2013-05-14 21:47:00,65.2,42.2,29.81,North,-999,4.0,14.0,43,0.00,,,0.00,0.00,VWS V14.01,2013-05-15 03:47:00,
2013-05-14 21:52:00,65.2,42.2,29.81,North,-999,5.0,15.0,43,0.00,,,0.00,0.00,VWS V14.01,2013-05-15 03:52:00,
2013-05-14 21:57:00,65.1,42.1,29.82,North,-999,4.0,15.0,43,0.00,,,0.00,0.00,VWS V14.01,2013-05-15 03:57:00,
2013-05-14 22:01:00,65.0,42.0,29.82,North,-999,7.0,10.0,43,0.00,,,0.00,0.00,VWS V14.01,2013-05-15 04:01:00,
2013-05-14 22:06:00,64.8,42.4,29.82,North,-999,2.0,10.0,44,0.00,,,0.00,0.00,VWS V14.01,2013-05-15 04:06:00,
2013-05-14 22:11:00,64.8,42.4,29.82,North,-999,5.0,9.0,44,0.00,,,0.00,0.00,VWS V14.01,2013-05-15 04:11:00,
2013-05-14 22:16:00,64.7,41.7,29.82,North,-999,0.0,9.0,43,0.00,,,0.00,0.00,VWS V14.01,2013-05-15 04:16:00,
2013-05-14 22:21:00,64.6,41.6,29.82,North,-999,0.0,4.0,43,0.00,,,0.00,0.00,VWS V14.01,2013-05-15 04:21:00,
2013-05-14 22:26:00,64.6,41.6,29.83,North,-999,0.0,7.0,43,0.00,,,0.00,0.00,VWS V14.01,2013-05-15 04:26:00,
2013-05-14 22:31:00,64.5,42.1,29.83,North,-999,0.0,0.0,44,0.00,,,0.00,0.00,VWS V14.01,2013-05-15 04:31:00,
2013-05-14 22:36:00,64.4,42.0,29.83,North,-999,0.0,0.0,44,0.00,,,0.00,0.00,VWS V14.01,2013-05-15 04:36:00,
2013-05-14 22:41:00,64.3,41.9,29.83,North,-999,0.0,0.0,44,0.00,,,0.00,0.00,VWS V14.01,2013-05-15 04:41:00,
2013-05-14 22:46:00,63.9,41.6,29.83,North,-999,0.0,0.0,44,0.00,,,0.00,0.00,VWS V14.01,2013-05-15 04:46:00,
2013-05-14 22:51:00,63.0,41.9,29.83,North,-999,0.0,0.0,46,0.00,,,0.00,0.00,VWS V14.01,2013-05-15 04:51:00,
2013-05-14 22:56:00,62.1,41.1,29.83,North,-999,3.0,5.0,46,0.00,,,0.00,0.00,VWS V14.01,2013-05-15 04:56:00,
2013-05-14 23:01:00,62.8,41.7,29.83,North,-999,2.0,6.0,46,0.00,,,0.00,0.00,VWS V14.01,2013-05-15 05:01:00,
2013-05-14 23:06:00,63.2,41.5,29.83,North,-999,0.0,6.0,45,0.00,,,0.00,0.00,VWS V14.01,2013-05-15 05:06:00,
2013-05-14 23:11:00,63.2,41.5,29.83,North,-999,0.0,0.0,45,0.00,,,0.00,0.00,VWS V14.01,2013-05-15 05:11:00,
2013-05-14 23:15:00,62.8,41.7,29.83,North,-999,0.0,0.0,46,0.00,,,0.00,0.00,VWS V14.01,2013-05-15 05:15:00,
2013-05-14 23:20:00,62.6,41.5,29.83,North,-999,0.0,0.0,46,0.00,,,0.00,0.00,VWS V14.01,2013-05-15 05:20:00,
2013-05-14 23:25:00,62.6,41.5,29.83,North,-999,0.0,2.0,46,0.00,,,0.00,0.00,VWS V14.01,2013-05-15 05:25:00,
2013-05-14 23:30:00,62.4,41.9,29.83,North,-999,0.0,0.0,47,0.00,,,0.00,0.00,VWS V14.01,2013-05-15 05:30:00,
2013-05-14 23:35:00,62.4,41.9,29.83,North,-999,0.0,0.0,47,0.00,,,0.00,0.00,VWS V14.01,2013-05-15 05:35:00,
2013-05-14 23:40:00,62.4,41.9,29.83,North,-999,5.0,7.0,47,0.00,,,0.00,0.00,VWS V14.01,2013-05-15 05:40:00,
2013-05-14 23:45:00,62.6,42.1,29.83,North,-999,0.0,7.0,47,0.00,,,0.00,0.00,VWS V14.01,2013-05-15 05:45:00,
2013-05-14 23:50:00,62.5,42.0,29.83,North,-999,0.0,2.0,47,0.00,,,0.00,0.00,VWS V14.01,2013-05-15 05:50:00,
2013-05-14 23:55:00,62.4,41.9,29.84,North,-999,0.0,2.0,47,0.00,,,0.00,0.00,VWS V14.01,2013-05-15 05:55:00,